CPX773 Details

Departure: Liège Airport (EBLG)
Arrival: Kuwait International Airport (OKBK) at N/A
Route: TUTOV FFM L984 OSBIT UZ205 LULAR Z205 ABUDO Z37 GIMBO INVED M747 CND L5 ADINA L851 KUGOS UW704 SIN CRM UM688 AD AD2D
Notes:


Current Weather Information
EBLG 191650Z 24008KT CAVOK 19/09 Q1018 NOSIG
OKBK 191700Z 20003KT CAVOK 38/12 Q1004 NOSIG